Ouro, Brazil
Current Conditions -  °F | °C
As of 4:00 PM on Thursday 18 Dec 2014 (Local Time) from SBCH Reporting Station
Scattered Clouds Scattered Clouds  
Wind Chill: 82°   Ceiling: Unl
Heat Index: 84°   Visibility: 6mi
Dew Point: 64°   Wind: 9mph
Humidity: 54%   Direction: 220°SW
Pressure: 29.85"   Gusts: NA
Location:  27.34°S, 51.62°W
Report Text: SBCH 181800Z 22008KT 9999 SCT030 28/18 Q1011
Loading
Personal Weather Stations






























Interactive Weather Map New forecast layout! Learn more

10-Day Weather Forecast

Advertisements
Track Severe Weather on mobile